createdAt,value
2023-03-28T00:02:05.400Z,90.67
2023-03-28T00:04:31.818Z,90.20
2023-03-28T00:06:58.216Z,90.64
2023-03-28T00:09:25.740Z,90.44
2023-03-28T00:11:52.240Z,90.70
2023-03-28T00:14:18.652Z,90.52
2023-03-28T00:16:47.751Z,90.61
2023-03-28T00:19:17.249Z,91.01
2023-03-28T00:21:47.189Z,90.90
2023-03-28T00:24:15.867Z,90.96
2023-03-28T00:26:44.015Z,90.74
2023-03-28T00:29:21.147Z,90.95
2023-03-28T00:31:49.533Z,90.79
2023-03-28T00:34:16.498Z,91.47
2023-03-28T00:36:43.060Z,92.52
2023-03-28T00:39:10.504Z,92.21
2023-03-28T00:41:40.283Z,92.07
2023-03-28T00:44:44.616Z,92.34
2023-03-28T00:47:38.853Z,92.85
2023-03-28T00:50:11.241Z,93.50
2023-03-28T00:52:43.830Z,93.16
2023-03-28T00:55:17.069Z,93.08
2023-03-28T00:57:46.053Z,93.16
2023-03-28T01:00:13.294Z,92.70
2023-03-28T01:02:43.106Z,92.78
2023-03-28T01:05:12.493Z,92.92
2023-03-28T01:07:46.014Z,93.62
2023-03-28T01:10:17.651Z,93.99
2023-03-28T01:12:44.128Z,93.86
2023-03-28T01:15:11.473Z,93.38
2023-03-28T01:17:48.217Z,93.27
2023-03-28T01:20:26.643Z,93.45
2023-03-28T01:23:14.411Z,95.96
2023-03-28T01:25:56.836Z,95.20
2023-03-28T01:29:05.574Z,95.68
2023-03-28T01:31:54.070Z,95.50
2023-03-28T01:35:14.246Z,97.16
2023-03-28T01:37:58.289Z,96.24
2023-03-28T01:40:40.939Z,97.53
2023-03-28T01:43:20.300Z,96.94
2023-03-28T01:45:56.382Z,95.94
2023-03-28T01:48:38.047Z,96.31
2023-03-28T01:51:07.995Z,98.69
2023-03-28T01:53:47.488Z,98.81
2023-03-28T01:56:30.542Z,100.00
2023-03-28T01:59:11.291Z,100.00
2023-03-28T02:02:09.959Z,100.00
2023-03-28T02:04:38.728Z,100.00
2023-03-28T02:07:08.852Z,100.00
2023-03-28T02:09:43.089Z,100.00
2023-03-28T02:12:26.890Z,100.00
2023-03-28T02:15:13.775Z,100.00
2023-03-28T02:18:11.091Z,100.00
2023-03-28T02:21:02.096Z,100.00
2023-03-28T02:23:48.433Z,100.00
2023-03-28T02:26:41.533Z,100.00
2023-03-28T02:29:18.884Z,100.00
2023-03-28T02:32:06.868Z,100.00
2023-03-28T02:34:33.314Z,100.00
2023-03-28T02:37:14.572Z,98.62
2023-03-28T02:39:59.430Z,99.23
2023-03-28T02:42:54.832Z,98.89
2023-03-28T02:45:52.579Z,99.07
2023-03-28T02:48:30.924Z,99.09
2023-03-28T02:51:16.271Z,98.85
2023-03-28T02:53:58.197Z,99.24
2023-03-28T02:56:52.962Z,98.64
2023-03-28T02:59:55.385Z,98.64
2023-03-28T03:02:22.769Z,97.87
2023-03-28T03:04:50.558Z,98.42
2023-03-28T03:07:20.218Z,97.79
2023-03-28T03:09:46.649Z,97.62
2023-03-28T03:12:13.846Z,99.06
2023-03-28T03:14:40.334Z,98.81
2023-03-28T03:17:29.688Z,99.02
2023-03-28T03:19:56.193Z,98.68
2023-03-28T03:22:23.456Z,98.30
2023-03-28T03:24:51.539Z,98.62
2023-03-28T03:27:19.222Z,97.76
2023-03-28T03:29:46.465Z,97.76
2023-03-28T03:32:15.513Z,97.21
2023-03-28T03:34:47.622Z,97.54
2023-03-28T03:37:14.461Z,97.90
2023-03-28T03:39:40.892Z,97.14
2023-03-28T03:42:07.317Z,98.06
2023-03-28T03:44:33.725Z,97.65
2023-03-28T03:47:00.616Z,97.89
2023-03-28T03:49:28.342Z,97.05
2023-03-28T03:51:55.331Z,96.60
2023-03-28T03:54:21.876Z,96.08
2023-03-28T03:56:49.208Z,95.88
2023-03-28T03:59:16.419Z,95.48
2023-03-28T04:01:44.836Z,95.52
2023-03-28T04:04:31.299Z,95.89
2023-03-28T04:07:06.622Z,95.83
2023-03-28T04:09:34.331Z,95.42
2023-03-28T04:12:03.706Z,95.31
2023-03-28T04:14:31.697Z,95.14
2023-03-28T04:17:21.314Z,95.92
2023-03-28T04:19:49.621Z,95.48
2023-03-28T04:22:18.258Z,96.22
2023-03-28T04:24:53.502Z,95.59
2023-03-28T04:27:34.215Z,96.14
2023-03-28T04:30:01.664Z,96.28
2023-03-28T04:32:54.350Z,95.99
2023-03-28T04:35:24.427Z,96.66
2023-03-28T04:37:53.758Z,95.98
2023-03-28T04:40:21.646Z,95.50
2023-03-28T04:42:57.839Z,95.49
2023-03-28T04:45:35.441Z,95.24
2023-03-28T04:48:14.423Z,96.65
2023-03-28T04:50:41.125Z,95.93
2023-03-28T04:53:07.720Z,95.69
2023-03-28T04:55:36.007Z,95.57
2023-03-28T04:58:15.969Z,96.88
2023-03-28T05:00:42.821Z,96.22
2023-03-28T05:03:33.044Z,95.94
2023-03-28T05:06:03.125Z,96.10
2023-03-28T05:08:29.733Z,96.39
2023-03-28T05:10:56.189Z,95.69
2023-03-28T05:13:23.216Z,96.58
2023-03-28T05:16:06.925Z,96.56
2023-03-28T05:18:53.752Z,96.04
2023-03-28T05:21:28.052Z,95.85
2023-03-28T05:23:54.470Z,95.33
2023-03-28T05:26:23.902Z,94.84
2023-03-28T05:28:51.137Z,95.55
2023-03-28T05:31:17.652Z,94.90
2023-03-28T05:33:48.976Z,95.64
2023-03-28T05:36:24.469Z,95.15
2023-03-28T05:38:51.813Z,94.54
2023-03-28T05:45:37.973Z,93.93
2023-03-28T05:48:18.529Z,94.34
2023-03-28T05:50:45.146Z,94.64
2023-03-28T05:53:11.588Z,94.30
2023-03-28T05:55:38.956Z,93.00
2023-03-28T05:58:06.359Z,93.03
2023-03-28T06:00:37.810Z,93.16
2023-03-28T06:03:04.574Z,93.96
2023-03-28T06:05:35.837Z,90.79
2023-03-28T06:08:09.167Z,90.08
2023-03-28T06:10:36.587Z,89.57
2023-03-28T06:13:15.015Z,88.26
2023-03-28T06:15:43.806Z,89.02
2023-03-28T06:18:10.520Z,87.34
2023-03-28T06:20:43.556Z,86.68
2023-03-28T06:23:10.140Z,84.77
2023-03-28T06:25:36.572Z,85.28
2023-03-28T06:28:03.255Z,84.51
2023-03-28T06:30:30.813Z,83.17
2023-03-28T06:32:58.346Z,83.61
2023-03-28T06:35:24.764Z,82.45
2023-03-28T06:37:51.228Z,81.36
2023-03-28T06:40:25.001Z,81.71
2023-03-28T06:42:51.772Z,80.80
2023-03-28T06:45:41.927Z,78.61
2023-03-28T06:48:12.348Z,78.55
2023-03-28T06:51:16.707Z,76.76
2023-03-28T06:53:45.202Z,76.58
2023-03-28T06:56:13.120Z,76.75
2023-03-28T06:58:39.599Z,76.69
2023-03-28T07:01:10.185Z,76.01
2023-03-28T07:03:46.227Z,76.93
2023-03-28T07:06:18.564Z,77.01
2023-03-28T07:08:45.641Z,74.31
2023-03-28T07:11:13.060Z,74.94
2023-03-28T07:13:41.321Z,74.43
2023-03-28T07:16:15.331Z,74.77
2023-03-28T07:18:43.342Z,75.33
2023-03-28T07:21:15.896Z,74.98
2023-03-28T07:23:42.882Z,72.53
2023-03-28T07:26:12.461Z,72.92
2023-03-28T07:28:39.141Z,73.50
2023-03-28T07:31:05.982Z,71.41
2023-03-28T07:33:37.641Z,70.33
2023-03-28T07:36:13.686Z,71.42
2023-03-28T07:38:41.979Z,69.01
2023-03-28T07:41:08.889Z,69.86
2023-03-28T07:43:35.994Z,70.11
2023-03-28T07:46:13.952Z,67.92
2023-03-28T07:48:41.155Z,70.04
2023-03-28T07:51:09.679Z,67.71
2023-03-28T07:53:40.123Z,68.22
2023-03-28T07:56:11.873Z,68.31
2023-03-28T07:58:54.964Z,68.34
2023-03-28T08:01:22.767Z,69.22
2023-03-28T08:03:53.206Z,67.26
2023-03-28T08:06:31.149Z,66.26
2023-03-28T08:09:00.530Z,66.48
2023-03-28T08:11:39.099Z,67.30
2023-03-28T08:14:09.195Z,64.80
2023-03-28T08:16:35.987Z,64.35
2023-03-28T08:19:10.741Z,62.03
2023-03-28T08:21:54.876Z,61.75
2023-03-28T08:24:32.907Z,61.62
2023-03-28T08:27:09.013Z,62.21
2023-03-28T08:29:35.516Z,60.27
2023-03-28T08:32:03.949Z,60.18
2023-03-28T08:34:30.714Z,59.08
2023-03-28T08:36:59.892Z,57.93
2023-03-28T08:39:27.482Z,59.00
2023-03-28T08:42:14.939Z,59.64
2023-03-28T08:45:04.773Z,59.27
2023-03-28T08:47:33.148Z,59.11
2023-03-28T08:50:06.968Z,56.43
2023-03-28T08:52:34.341Z,57.52
2023-03-28T08:55:22.470Z,56.55
2023-03-28T08:57:53.126Z,56.02
2023-03-28T09:00:27.501Z,56.21
2023-03-28T09:02:55.069Z,55.20
2023-03-28T09:05:52.573Z,54.93
2023-03-28T09:08:27.628Z,53.73
2023-03-28T09:11:11.151Z,52.67
2023-03-28T09:14:09.824Z,51.34
2023-03-28T09:16:59.652Z,49.56
2023-03-28T09:20:11.129Z,50.79
2023-03-28T09:23:12.765Z,51.64
2023-03-28T09:26:23.478Z,50.51
2023-03-28T09:29:02.215Z,48.96
2023-03-28T09:31:37.628Z,48.95
2023-03-28T09:34:07.083Z,47.68
2023-03-28T09:36:49.039Z,48.90
2023-03-28T09:39:40.221Z,49.10
2023-03-28T09:42:13.981Z,49.61
2023-03-28T09:45:02.957Z,47.72
2023-03-28T09:47:49.935Z,47.66
2023-03-28T09:50:20.456Z,47.78
2023-03-28T09:52:51.656Z,51.19
2023-03-28T09:55:24.155Z,50.07
2023-03-28T09:58:20.950Z,47.76
2023-03-28T10:01:36.298Z,48.54
2023-03-28T10:04:29.649Z,48.28
2023-03-28T10:07:16.552Z,46.05
2023-03-28T10:09:54.115Z,48.05
2023-03-28T10:12:32.291Z,47.92
2023-03-28T10:14:58.919Z,48.49
2023-03-28T10:17:51.505Z,47.55
2023-03-28T10:20:24.001Z,46.94
2023-03-28T10:22:56.582Z,46.70
2023-03-28T10:25:45.325Z,47.44
2023-03-28T10:28:17.777Z,47.37
2023-03-28T10:30:53.518Z,46.27
2023-03-28T10:33:25.641Z,46.44
2023-03-28T10:36:25.473Z,46.00
2023-03-28T10:38:52.688Z,46.01
2023-03-28T10:41:29.645Z,46.88
2023-03-28T10:44:25.077Z,46.71
2023-03-28T10:46:59.381Z,46.68
2023-03-28T10:49:45.808Z,46.16
2023-03-28T10:52:30.965Z,45.67
2023-03-28T10:55:13.708Z,45.83
2023-03-28T10:58:30.753Z,43.83
2023-03-28T11:01:13.479Z,45.05
2023-03-28T11:04:08.886Z,45.92
2023-03-28T11:06:46.269Z,45.52
2023-03-28T11:09:46.801Z,45.62
2023-03-28T11:13:02.735Z,44.24
2023-03-28T11:15:47.773Z,43.07
2023-03-28T11:18:35.575Z,44.30
2023-03-28T11:21:21.616Z,43.73
2023-03-28T11:24:15.877Z,45.17
2023-03-28T11:27:15.993Z,45.13
2023-03-28T11:30:09.871Z,45.13
2023-03-28T11:32:57.454Z,43.96
2023-03-28T11:35:37.770Z,44.13
2023-03-28T11:38:14.720Z,44.49
2023-03-28T11:40:53.870Z,44.85
2023-03-28T11:43:45.417Z,44.87
2023-03-28T11:46:19.232Z,44.52
2023-03-28T11:49:09.122Z,44.45
2023-03-28T11:51:45.586Z,43.51
2023-03-28T11:54:24.180Z,42.68
2023-03-28T11:57:06.872Z,43.07
2023-03-28T12:00:32.134Z,43.04
2023-03-28T12:03:19.558Z,43.39
2023-03-28T12:06:02.788Z,43.78
2023-03-28T12:08:37.547Z,44.17
2023-03-28T12:11:07.405Z,42.44
2023-03-28T12:14:08.702Z,42.69
2023-03-28T12:16:42.321Z,42.21
2023-03-28T12:19:14.844Z,43.67
2023-03-28T12:21:51.562Z,43.00
2023-03-28T12:25:06.157Z,41.89
2023-03-28T12:27:55.779Z,42.10
2023-03-28T12:30:33.958Z,43.34
2023-03-28T12:33:24.101Z,42.95
2023-03-28T12:36:18.066Z,42.86
2023-03-28T12:38:57.811Z,42.60
2023-03-28T12:41:34.389Z,42.85
2023-03-28T12:44:08.217Z,41.10
2023-03-28T12:46:55.319Z,40.62
2023-03-28T12:49:45.487Z,41.42
2023-03-28T12:52:28.827Z,41.23
2023-03-28T12:55:02.223Z,41.04
2023-03-28T12:57:46.396Z,40.80
2023-03-28T13:00:39.756Z,39.20
2023-03-28T13:03:51.777Z,39.14
2023-03-28T13:07:05.296Z,39.60
2023-03-28T13:09:39.090Z,38.86
2023-03-28T13:12:22.735Z,40.07
2023-03-28T13:15:02.589Z,39.69
2023-03-28T13:17:32.410Z,39.54
2023-03-28T13:20:17.503Z,38.94
2023-03-28T13:22:47.166Z,39.31
2023-03-28T13:25:21.064Z,40.72
2023-03-28T13:27:49.701Z,39.71
2023-03-28T13:30:17.359Z,38.52
2023-03-28T13:32:50.952Z,38.47
2023-03-28T13:35:49.697Z,37.93
2023-03-28T13:38:23.998Z,39.11
2023-03-28T13:40:56.408Z,37.85
2023-03-28T13:43:34.989Z,37.84
2023-03-28T13:46:24.943Z,39.57
2023-03-28T13:49:00.788Z,39.46
2023-03-28T13:51:31.797Z,38.97
2023-03-28T13:53:58.175Z,40.43
2023-03-28T13:56:35.662Z,38.71
2023-03-28T13:59:08.027Z,38.42
2023-03-28T14:01:42.070Z,38.32
2023-03-28T14:04:23.935Z,37.92
2023-03-28T14:06:51.294Z,37.86
2023-03-28T14:09:27.651Z,37.67
2023-03-28T14:12:14.263Z,37.74
2023-03-28T14:14:44.226Z,36.99
2023-03-28T14:17:17.340Z,37.60
2023-03-28T14:19:54.929Z,39.05
2023-03-28T14:22:25.963Z,39.00
2023-03-28T14:24:57.406Z,38.40
2023-03-28T14:27:45.375Z,38.42
2023-03-28T14:30:22.504Z,38.45
2023-03-28T14:32:58.762Z,36.95
2023-03-28T14:35:31.555Z,37.73
2023-03-28T14:38:00.923Z,38.23
2023-03-28T14:40:29.168Z,38.32
2023-03-28T14:43:01.398Z,38.42
2023-03-28T14:45:29.327Z,38.74
2023-03-28T14:47:57.228Z,37.89
2023-03-28T14:50:29.347Z,37.49
2023-03-28T14:53:01.069Z,38.30
2023-03-28T14:55:28.126Z,37.99
2023-03-28T14:57:55.816Z,38.49
2023-03-28T15:00:28.485Z,38.10
2023-03-28T15:02:55.747Z,37.79
2023-03-28T15:05:23.181Z,38.26
2023-03-28T15:08:02.127Z,37.24
2023-03-28T15:10:29.344Z,38.20
2023-03-28T15:13:18.339Z,38.00
2023-03-28T15:15:47.181Z,38.50
2023-03-28T15:18:17.556Z,38.16
2023-03-28T15:20:49.314Z,38.67
2023-03-28T15:23:26.991Z,38.23
2023-03-28T15:25:54.163Z,37.88
2023-03-28T15:28:20.596Z,38.00
2023-03-28T15:30:47.638Z,39.11
2023-03-28T15:33:18.621Z,38.58
2023-03-28T15:35:45.246Z,39.48
2023-03-28T15:38:19.349Z,39.64
2023-03-28T15:40:51.268Z,40.15
2023-03-28T15:43:27.048Z,39.73
2023-03-28T15:45:58.082Z,40.43
2023-03-28T15:48:25.179Z,40.29
2023-03-28T15:50:54.112Z,39.95
2023-03-28T15:53:21.981Z,39.39
2023-03-28T15:55:49.851Z,39.88
2023-03-28T15:58:19.321Z,40.62
2023-03-28T16:00:52.597Z,40.24
2023-03-28T16:03:25.047Z,40.19
2023-03-28T16:06:09.806Z,41.00
2023-03-28T16:08:41.466Z,40.82
2023-03-28T16:11:17.254Z,40.69
2023-03-28T16:14:20.533Z,41.80
2023-03-28T16:17:11.294Z,41.45
2023-03-28T16:19:53.037Z,41.19
2023-03-28T16:22:21.116Z,41.73
2023-03-28T16:24:51.894Z,41.84
2023-03-28T16:27:19.452Z,41.10
2023-03-28T16:29:46.365Z,42.27
2023-03-28T16:32:15.069Z,42.59
2023-03-28T16:34:43.128Z,42.51
2023-03-28T16:37:11.437Z,42.65
2023-03-28T16:39:38.290Z,42.42
2023-03-28T16:42:06.110Z,43.00
2023-03-28T16:44:32.821Z,42.94
2023-03-28T16:47:00.171Z,43.19
2023-03-28T16:49:26.943Z,43.66
2023-03-28T16:51:54.745Z,43.34
2023-03-28T16:54:22.049Z,43.44
2023-03-28T16:56:48.517Z,43.53
2023-03-28T16:59:15.303Z,43.59
2023-03-28T17:01:43.018Z,43.93
2023-03-28T17:04:09.878Z,43.83
2023-03-28T17:06:36.494Z,44.65
2023-03-28T17:09:04.575Z,45.44
2023-03-28T17:11:31.540Z,45.39
2023-03-28T17:13:57.974Z,45.58
2023-03-28T17:16:24.883Z,45.28
2023-03-28T17:18:51.712Z,45.93
2023-03-28T17:21:18.558Z,46.55
2023-03-28T17:23:47.865Z,46.90
2023-03-28T17:26:15.532Z,47.63
2023-03-28T17:28:43.412Z,48.21
2023-03-28T17:31:12.745Z,47.30
2023-03-28T17:33:39.229Z,49.57
2023-03-28T17:36:21.037Z,50.11
2023-03-28T17:38:50.156Z,51.05
2023-03-28T17:41:17.413Z,50.71
2023-03-28T17:43:44.410Z,50.50
2023-03-28T17:46:11.952Z,51.18
2023-03-28T17:48:39.532Z,51.07
2023-03-28T17:51:07.441Z,50.88
2023-03-28T17:53:33.902Z,50.98
2023-03-28T17:56:00.744Z,52.31
2023-03-28T17:58:27.720Z,53.11
2023-03-28T18:00:54.329Z,53.97
2023-03-28T18:03:21.533Z,54.01
2023-03-28T18:06:01.154Z,54.69
2023-03-28T18:08:28.696Z,55.64
2023-03-28T18:11:00.763Z,56.50
2023-03-28T18:13:27.154Z,57.37
2023-03-28T18:15:53.601Z,57.60
2023-03-28T18:18:20.075Z,57.74
2023-03-28T18:20:46.537Z,57.63
2023-03-28T18:23:12.965Z,57.82
2023-03-28T18:25:39.627Z,59.21
2023-03-28T18:28:06.547Z,59.13
2023-03-28T18:30:33.911Z,59.73
2023-03-28T18:33:00.699Z,60.12
2023-03-28T18:35:27.661Z,60.11
2023-03-28T18:37:54.062Z,59.85
2023-03-28T18:40:20.464Z,60.14
2023-03-28T18:42:46.851Z,61.73
2023-03-28T18:45:13.296Z,62.33
2023-03-28T18:47:41.070Z,63.56
2023-03-28T18:50:10.592Z,63.02
2023-03-28T18:52:37.495Z,63.65
2023-03-28T18:55:05.075Z,63.16
2023-03-28T18:57:31.473Z,62.90
2023-03-28T18:59:58.525Z,62.77
2023-03-28T19:02:26.449Z,62.61
2023-03-28T19:04:52.992Z,62.52
2023-03-28T19:07:19.418Z,63.55
2023-03-28T19:09:45.804Z,63.49
2023-03-28T19:12:12.695Z,63.19
2023-03-28T19:14:39.212Z,64.00
2023-03-28T19:17:06.115Z,63.98
2023-03-28T19:19:37.527Z,64.81
2023-03-28T19:22:05.745Z,64.21
2023-03-28T19:24:33.055Z,65.49
2023-03-28T19:27:00.474Z,66.46
2023-03-28T19:29:28.584Z,66.18
2023-03-28T19:31:54.979Z,66.37
2023-03-28T19:34:21.545Z,68.22
2023-03-28T19:36:47.945Z,67.67
2023-03-28T19:39:14.793Z,67.57
2023-03-28T19:41:41.589Z,68.19
2023-03-28T19:44:07.990Z,69.17
2023-03-28T19:46:36.356Z,69.87
2023-03-28T19:49:06.334Z,70.57
2023-03-28T19:51:33.838Z,70.56
2023-03-28T19:54:00.287Z,69.95
2023-03-28T19:56:26.968Z,70.68
2023-03-28T19:58:53.362Z,70.88
2023-03-28T20:01:20.413Z,69.95
2023-03-28T20:03:49.434Z,70.37
2023-03-28T20:06:16.871Z,69.78
2023-03-28T20:08:43.725Z,69.88
2023-03-28T20:11:12.632Z,70.88
2023-03-28T20:13:39.723Z,70.44
2023-03-28T20:16:08.187Z,70.13
2023-03-28T20:18:36.178Z,70.49
2023-03-28T20:21:05.646Z,70.52
2023-03-28T20:23:33.126Z,70.91
2023-03-28T20:26:01.428Z,70.65
2023-03-28T20:28:32.465Z,71.56
2023-03-28T20:30:58.943Z,71.00
2023-03-28T20:33:25.985Z,70.97
2023-03-28T20:35:58.143Z,71.84
2023-03-28T20:38:27.767Z,71.32
2023-03-28T20:40:54.221Z,71.63
2023-03-28T20:43:21.156Z,72.23
2023-03-28T20:45:54.466Z,71.95
2023-03-28T20:48:25.972Z,71.10
2023-03-28T20:50:53.952Z,71.91
2023-03-28T20:53:21.781Z,72.11
2023-03-28T20:55:48.186Z,72.48
2023-03-28T20:58:14.635Z,72.34
2023-03-28T21:00:41.073Z,72.09
2023-03-28T21:03:11.195Z,72.40
2023-03-28T21:05:41.910Z,73.02
2023-03-28T21:08:08.347Z,73.02
2023-03-28T21:10:36.356Z,72.87
2023-03-28T21:13:02.750Z,72.39
2023-03-28T21:15:30.488Z,73.30
2023-03-28T21:17:57.002Z,73.14
2023-03-28T21:20:23.405Z,73.55
2023-03-28T21:22:49.853Z,72.86
2023-03-28T21:25:16.620Z,73.99
2023-03-28T21:27:43.101Z,72.97
2023-03-28T21:30:11.575Z,73.75
2023-03-28T21:32:38.043Z,74.27
2023-03-28T21:35:05.316Z,74.82
2023-03-28T21:37:31.874Z,74.55
2023-03-28T21:39:58.323Z,74.22
2023-03-28T21:42:24.861Z,75.04
2023-03-28T21:44:51.934Z,75.23
2023-03-28T21:47:18.364Z,75.78
2023-03-28T21:49:45.938Z,75.62
2023-03-28T21:52:12.730Z,75.92
2023-03-28T21:54:39.118Z,75.97
2023-03-28T21:57:05.752Z,75.47
2023-03-28T21:59:32.164Z,76.33
2023-03-28T22:01:58.791Z,76.45
2023-03-28T22:04:25.190Z,76.26
2023-03-28T22:06:51.603Z,76.65
2023-03-28T22:09:19.452Z,76.71
2023-03-28T22:11:45.853Z,76.78
2023-03-28T22:14:12.803Z,76.76
2023-03-28T22:16:39.670Z,76.81
2023-03-28T22:19:08.664Z,77.07
2023-03-28T22:21:36.891Z,77.04
2023-03-28T22:24:04.278Z,77.38
2023-03-28T22:26:30.960Z,77.24
2023-03-28T22:28:59.387Z,77.15
2023-03-28T22:31:26.397Z,77.82
2023-03-28T22:33:53.961Z,77.45
2023-03-28T22:36:20.759Z,77.29
2023-03-28T22:38:47.217Z,78.34
2023-03-28T22:41:13.625Z,77.41
2023-03-28T22:43:42.596Z,77.81
2023-03-28T22:46:12.530Z,77.65
2023-03-28T22:48:39.141Z,78.43
2023-03-28T22:51:11.401Z,78.88
2023-03-28T22:53:38.761Z,78.78
2023-03-28T22:56:06.458Z,79.19
2023-03-28T22:58:33.795Z,78.51
2023-03-28T23:01:00.518Z,78.45
2023-03-28T23:03:27.549Z,79.05
2023-03-28T23:05:55.046Z,79.02
2023-03-28T23:08:22.180Z,78.86
2023-03-28T23:10:48.731Z,79.14
2023-03-28T23:13:15.318Z,79.35
2023-03-28T23:15:41.730Z,78.55
2023-03-28T23:18:08.490Z,77.83
2023-03-28T23:20:35.720Z,78.67
2023-03-28T23:23:02.123Z,79.14
2023-03-28T23:25:28.599Z,79.78
2023-03-28T23:27:55.010Z,80.56
2023-03-28T23:30:21.393Z,80.72
2023-03-28T23:32:47.981Z,79.79
2023-03-28T23:35:14.392Z,80.18
2023-03-28T23:37:40.797Z,80.50
2023-03-28T23:40:12.061Z,80.32
2023-03-28T23:42:38.473Z,80.63
2023-03-28T23:45:05.243Z,80.51
2023-03-28T23:47:31.737Z,81.18
2023-03-28T23:49:58.162Z,81.39
2023-03-28T23:52:24.568Z,80.42
2023-03-28T23:54:50.960Z,81.17
2023-03-28T23:57:17.412Z,80.76
2023-03-28T23:59:43.896Z,80.33
